Time;durP1;ratioP1;P1;durP2;ratioP2;P2;SDS_P1;SDS_P2;PMS_P1;PMS_P2;Temp;Humidity;BMP_temperature;BMP_pressure;BME280_temperature;BME280_humidity;BME280_pressure;Samples;Min_cycle;Max_cycle;Signal;HPM_P1;HPM_P2
2022/08/13 07:09:48;;;;;;;7.78;3.47;;;33.30;68.90;;;;;;5062816;28;20451;-49
2022/08/13 07:12:15;;;;;;;6.47;3.30;;;33.30;68.30;;;;;;5047715;28;20083;-47
2022/08/13 07:14:44;;;;;;;5.85;3.22;;;33.90;67.00;;;;;;5048019;28;20112;-46
2022/08/13 07:17:11;;;;;;;7.63;3.25;;;34.40;64.10;;;;;;5047133;28;20018;-50
2022/08/13 07:19:37;;;;;;;9.32;3.67;;;34.60;63.30;;;;;;5046472;28;20052;-48
2022/08/13 07:22:04;;;;;;;5.78;3.45;;;35.20;61.10;;;;;;5047313;28;20021;-52
2022/08/13 07:24:31;;;;;;;7.47;3.00;;;35.40;58.70;;;;;;5047216;28;20534;-49
2022/08/13 07:27:03;;;;;;;6.80;3.03;;;35.90;58.00;;;;;;5046710;28;20480;-48
2022/08/13 07:29:32;;;;;;;5.38;2.78;;;35.90;56.90;;;;;;5045330;28;20565;-47
2022/08/13 07:32:01;;;;;;;9.32;3.20;;;36.30;55.80;;;;;;5047411;28;20029;-50
2022/08/13 07:34:31;;;;;;;7.25;3.03;;;36.50;54.40;;;;;;5044775;28;20025;-49
2022/08/13 07:36:57;;;;;;;6.50;2.80;;;36.60;53.50;;;;;;5046845;28;20424;-47
2022/08/13 07:39:23;;;;;;;5.80;2.72;;;36.60;53.20;;;;;;5047613;28;20096;-46
2022/08/13 07:41:49;;;;;;;6.03;2.80;;;36.80;51.50;;;;;;5047546;28;20064;-46
2022/08/13 07:44:22;;;;;;;6.50;3.00;;;37.00;51.60;;;;;;5047600;28;20021;-47
2022/08/13 07:46:50;;;;;;;8.98;2.90;;;37.00;50.90;;;;;;5047499;28;20029;-44
2022/08/13 07:49:18;;;;;;;6.85;2.92;;;37.10;50.10;;;;;;5047569;28;20033;-50
2022/08/13 07:51:46;;;;;;;8.57;3.25;;;36.90;50.30;;;;;;5047623;28;20392;-50
2022/08/13 07:54:12;;;;;;;4.78;2.72;;;36.20;49.00;;;;;;5047523;28;20025;-47
2022/08/13 07:56:39;;;;;;;5.00;3.10;;;36.90;48.80;;;;;;5047225;28;20487;-52
2022/08/13 07:59:08;;;;;;;10.73;3.90;;;36.60;47.80;;;;;;5047478;28;20013;-51
2022/08/13 08:01:50;;;;;;;5.85;3.58;;;35.50;48.70;;;;;;5047145;28;20044;-51
2022/08/13 08:04:17;;;;;;;6.60;3.25;;;35.60;48.90;;;;;;5047450;28;20021;-56
2022/08/13 08:06:47;;;;;;;7.35;3.45;;;35.30;48.10;;;;;;5046763;28;20021;-49
2022/08/13 08:09:21;;;;;;;9.25;3.92;;;35.30;50.10;;;;;;5038898;28;20042;-53
2022/08/13 08:14:31;;;;;;;8.20;3.35;;;36.00;46.50;;;;;;5038363;28;20508;-46
2022/08/13 08:17:01;;;;;;;6.32;3.60;;;36.20;46.90;;;;;;5046893;28;20021;-45
2022/08/13 08:19:28;;;;;;;13.32;3.33;;;36.90;47.00;;;;;;5033450;28;20036;-46
2022/08/13 08:21:58;;;;;;;4.75;3.03;;;36.70;46.60;;;;;;5033741;28;20021;-45
2022/08/13 08:24:26;;;;;;;5.53;2.70;;;37.00;46.40;;;;;;5032306;28;20152;-49
2022/08/13 08:26:55;;;;;;;6.32;3.15;;;37.20;46.90;;;;;;5031817;28;20029;-44
2022/08/13 08:29:21;;;;;;;4.78;2.88;;;37.80;45.90;;;;;;5031210;28;20079;-46
2022/08/13 08:31:50;;;;;;;7.63;2.72;;;38.10;44.90;;;;;;5033481;28;20029;-43
2022/08/13 08:34:18;;;;;;;5.30;2.72;;;38.30;45.20;;;;;;5033808;28;20160;-45
2022/08/13 08:36:44;;;;;;;5.07;2.35;;;38.80;44.70;;;;;;5033397;28;20029;-49
2022/08/13 08:44:44;;;;;;;5.10;2.50;;;39.40;43.80;;;;;;5033457;28;20033;-50
2022/08/13 08:47:11;;;;;;;6.90;2.80;;;39.60;41.60;;;;;;5033351;28;20400;-51
2022/08/13 08:49:39;;;;;;;6.45;2.38;;;39.80;40.20;;;;;;5033132;28;20053;-48
2022/08/13 08:52:05;;;;;;;6.43;2.60;;;39.80;41.50;;;;;;5033223;28;20052;-52
2022/08/13 08:54:31;;;;;;;7.15;2.80;;;39.70;41.00;;;;;;5032910;28;20029;-50
2022/08/13 08:56:58;;;;;;;8.90;3.20;;;39.50;40.60;;;;;;5033038;28;20029;-47
2022/08/13 08:59:28;;;;;;;6.13;2.70;;;38.70;40.30;;;;;;5032151;28;20092;-51
2022/08/13 09:01:55;;;;;;;6.10;2.67;;;38.40;41.60;;;;;;5032797;28;20037;-47
2022/08/13 09:04:28;;;;;;;6.55;2.63;;;38.60;40.90;;;;;;5032052;28;20029;-47
2022/08/13 09:06:55;;;;;;;5.82;2.70;;;38.60;40.80;;;;;;5031429;28;20389;-51
2022/08/13 09:09:21;;;;;;;7.43;3.30;;;38.80;40.70;;;;;;5031537;28;20050;-45
2022/08/13 09:11:49;;;;;;;6.10;2.80;;;37.70;40.30;;;;;;5032182;28;20025;-50
2022/08/13 09:14:15;;;;;;;4.75;2.30;;;37.80;41.20;;;;;;5032635;28;20072;-48
2022/08/13 09:16:42;;;;;;;6.07;3.22;;;38.60;42.80;;;;;;5031919;28;20079;-48
2022/08/13 09:19:12;;;;;;;6.95;2.85;;;39.20;40.20;;;;;;5029891;28;20029;-45
2022/08/13 09:21:45;;;;;;;5.70;2.55;;;39.10;39.30;;;;;;5032511;28;20037;-45
2022/08/13 09:24:14;;;;;;;5.85;3.30;;;39.10;40.40;;;;;;5031279;28;20022;-52
2022/08/13 09:26:45;;;;;;;5.63;2.95;;;37.70;40.80;;;;;;5032311;28;20029;-50
2022/08/13 09:29:18;;;;;;;4.57;2.78;;;37.40;44.40;;;;;;5031208;28;20071;-55
2022/08/13 09:31:47;;;;;;;5.75;2.70;;;38.10;43.70;;;;;;5028947;28;20391;-49
2022/08/13 09:34:14;;;;;;;5.43;2.80;;;38.80;43.70;;;;;;5031150;28;20029;-50
2022/08/13 09:36:40;;;;;;;4.35;2.80;;;39.30;40.40;;;;;;5032201;28;20041;-51
2022/08/13 09:39:06;;;;;;;5.82;2.75;;;39.40;40.80;;;;;;5032261;28;20017;-51
2022/08/13 09:41:37;;;;;;;4.90;2.60;;;39.70;40.40;;;;;;5032155;28;20027;-51
2022/08/13 09:44:04;;;;;;;7.05;2.90;;;40.10;40.10;;;;;;5029287;28;20057;-48
2022/08/13 09:46:31;;;;;;;7.05;2.63;;;40.00;40.10;;;;;;5030822;28;20029;-50
2022/08/13 09:48:58;;;;;;;4.90;2.80;;;40.20;39.80;;;;;;5030869;28;20037;-44
2022/08/13 09:51:25;;;;;;;4.43;2.80;;;40.10;40.60;;;;;;5030418;28;20022;-51
2022/08/13 09:53:51;;;;;;;7.00;2.83;;;39.60;39.90;;;;;;5030060;28;20041;-54
2022/08/13 09:56:17;;;;;;;6.50;3.00;;;39.60;39.70;;;;;;5030610;28;20033;-45
2022/08/13 09:58:50;;;;;;;4.90;2.88;;;38.40;39.10;;;;;;5030777;28;20033;-50
2022/08/13 10:01:20;;;;;;;5.60;2.83;;;38.20;40.40;;;;;;5030191;28;20017;-51
2022/08/13 10:03:48;;;;;;;8.13;2.90;;;38.40;39.70;;;;;;5030430;28;20480;-46
2022/08/13 10:06:18;;;;;;;;;;;38.40;40.80;;;;;;5031327;28;20018;-48
2022/08/13 10:08:47;;;;;;;6.57;2.55;;;38.30;39.10;;;;;;5029386;28;19923;-51
2022/08/13 10:11:15;;;;;;;5.93;2.90;;;39.00;39.50;;;;;;5028051;28;20500;-50
2022/08/13 10:13:42;;;;;;;8.02;2.75;;;39.60;38.10;;;;;;5029965;28;20060;-47
2022/08/13 10:16:07;;;;;;;12.77;3.03;;;39.30;37.80;;;;;;5030258;28;20025;-44
2022/08/13 10:18:33;;;;;;;5.68;2.60;;;39.30;35.30;;;;;;5030701;28;20024;-49
2022/08/13 10:20:59;;;;;;;6.85;2.80;;;39.60;36.40;;;;;;5030494;28;20032;-51
2022/08/13 10:23:25;;;;;;;5.15;2.80;;;39.80;35.30;;;;;;5030306;28;20022;-49
2022/08/13 10:25:52;;;;;;;5.57;3.30;;;39.60;36.40;;;;;;5030351;28;20037;-46
2022/08/13 10:28:22;;;;;;;6.50;2.90;;;38.40;33.60;;;;;;5030504;28;20104;-44
2022/08/13 10:30:47;;;;;;;4.25;2.50;;;38.50;36.10;;;;;;5030172;28;20053;-44
2022/08/13 10:33:15;;;;;;;8.13;3.08;;;38.60;36.80;;;;;;5030704;28;20064;-44
2022/08/13 10:35:42;;;;;;;10.50;3.33;;;39.00;35.50;;;;;;5030448;28;20022;-50
2022/08/13 10:38:12;;;;;;;7.80;2.60;;;38.10;35.90;;;;;;5029720;28;20025;-44
2022/08/13 10:40:38;;;;;;;6.07;2.80;;;38.40;38.60;;;;;;5029779;28;20714;-45
2022/08/13 10:43:05;;;;;;;4.95;2.92;;;38.70;36.90;;;;;;5026935;28;20029;-44
2022/08/13 10:45:31;;;;;;;6.30;3.05;;;37.80;36.30;;;;;;5029010;28;20117;-54
2022/08/13 10:47:57;;;;;;;4.82;2.95;;;37.00;38.10;;;;;;5029992;28;20108;-51
2022/08/13 10:50:29;;;;;;;4.88;3.10;;;36.50;39.80;;;;;;5028995;28;20025;-46
2022/08/13 10:52:59;;;;;;;5.28;3.10;;;37.10;40.70;;;;;;5029950;28;20027;-48
2022/08/13 10:55:26;;;;;;;6.45;3.17;;;35.70;39.70;;;;;;5029712;28;20060;-48
2022/08/13 10:57:52;;;;;;;4.97;3.20;;;35.70;38.40;;;;;;5024334;28;20301;-48
2022/08/13 11:00:19;;;;;;;5.65;3.22;;;36.20;36.90;;;;;;5024653;28;20026;-48
2022/08/13 11:02:50;;;;;;;7.50;2.97;;;36.50;38.30;;;;;;5029590;28;20057;-47
2022/08/13 11:05:22;;;;;;;4.90;3.15;;;37.40;39.60;;;;;;5028838;28;20476;-44
2022/08/13 11:07:48;;;;;;;6.05;2.85;;;37.60;36.00;;;;;;5027486;28;20057;-48
2022/08/13 11:10:14;;;;;;;6.55;3.30;;;37.50;35.50;;;;;;5028670;28;20021;-42
2022/08/13 11:12:48;;;;;;;6.32;2.88;;;36.70;34.90;;;;;;5029004;28;20025;-47
2022/08/13 11:15:14;;;;;;;6.28;3.05;;;36.90;36.60;;;;;;5028266;28;20026;-45
2022/08/13 11:17:46;;;;;;;6.15;3.25;;;36.60;34.00;;;;;;5031943;28;20035;-42
2022/08/13 11:20:17;;;;;;;4.18;2.90;;;35.50;34.20;;;;;;5031200;28;20163;-45
2022/08/13 11:22:43;;;;;;;4.47;2.50;;;35.70;36.60;;;;;;5033777;28;20032;-44
2022/08/13 11:25:09;;;;;;;3.50;2.22;;;35.90;32.00;;;;;;5031195;28;20075;-48
2022/08/13 11:27:35;;;;;;;5.03;2.63;;;35.70;31.50;;;;;;5029840;28;20487;-45
2022/08/13 11:30:01;;;;;;;5.65;2.40;;;35.30;31.30;;;;;;5026124;28;20044;-44
2022/08/13 11:32:27;;;;;;;6.10;2.60;;;35.60;34.80;;;;;;5025601;28;20025;-48
2022/08/13 11:34:53;;;;;;;5.82;2.70;;;35.60;31.10;;;;;;5028943;28;20072;-48
2022/08/13 11:37:18;;;;;;;5.55;3.00;;;35.80;32.00;;;;;;5030960;28;20032;-49
2022/08/13 11:39:44;;;;;;;6.97;3.00;;;35.80;32.80;;;;;;5029421;28;20629;-55
2022/08/13 11:42:09;;;;;;;4.30;2.60;;;35.90;33.20;;;;;;5032000;28;20096;-45
2022/08/13 11:44:35;;;;;;;5.40;2.58;;;35.90;31.80;;;;;;5030620;28;20048;-47
2022/08/13 11:47:01;;;;;;;5.80;2.88;;;35.80;31.10;;;;;;5031845;28;20029;-43
2022/08/13 11:49:26;;;;;;;3.05;2.25;;;34.80;34.00;;;;;;5030219;28;20056;-44
2022/08/13 11:51:52;;;;;;;6.82;2.28;;;35.30;30.90;;;;;;5025660;28;20278;-46
2022/08/13 11:54:22;;;;;;;3.50;2.40;;;35.10;31.60;;;;;;5029627;28;20056;-42
2022/08/13 11:56:47;;;;;;;3.50;2.10;;;35.40;32.70;;;;;;5037106;28;20017;-46
2022/08/13 11:59:13;;;;;;;7.43;2.42;;;35.30;32.00;;;;;;5034117;28;20660;-49
2022/08/13 12:01:39;;;;;;;3.97;1.80;;;35.30;31.40;;;;;;5032771;28;20045;-43
2022/08/13 12:04:05;;;;;;;2.70;1.92;;;35.00;31.40;;;;;;5037367;28;20103;-43
2022/08/13 12:06:30;;;;;;;3.40;1.83;;;35.10;32.50;;;;;;5033215;28;20052;-45
2022/08/13 12:08:57;;;;;;;4.70;2.05;;;35.10;32.80;;;;;;5034224;28;20149;-50
2022/08/13 12:11:22;;;;;;;2.20;1.70;;;35.00;31.30;;;;;;5035151;28;20030;-50
2022/08/13 12:13:48;;;;;;;3.72;1.80;;;35.20;32.40;;;;;;5030548;28;20036;-47
2022/08/13 12:16:13;;;;;;;2.17;1.67;;;35.20;31.10;;;;;;5031161;28;20030;-49
2022/08/13 12:18:39;;;;;;;2.83;1.90;;;35.20;31.00;;;;;;5032388;28;20108;-45
2022/08/13 12:21:05;;;;;;;3.17;2.08;;;35.30;31.00;;;;;;5032476;28;20029;-44
2022/08/13 12:23:31;;;;;;;4.60;1.95;;;35.30;31.30;;;;;;5030791;28;20018;-43
2022/08/13 12:25:57;;;;;;;6.63;2.60;;;35.50;31.40;;;;;;5032752;28;20072;-49
2022/08/13 12:28:25;;;;;;;3.15;2.05;;;34.70;31.80;;;;;;5032540;28;20071;-49
2022/08/13 12:30:52;;;;;;;;;;;34.40;32.70;;;;;;5030575;28;20539;-45
2022/08/13 12:33:18;;;;;;;3.20;1.98;;;34.00;33.10;;;;;;5032945;28;19905;-46
2022/08/13 12:35:45;;;;;;;3.28;1.70;;;34.30;33.40;;;;;;5030619;28;20057;-43
2022/08/13 12:38:12;;;;;;;5.28;1.92;;;34.50;32.90;;;;;;5033041;28;20041;-47
2022/08/13 12:40:40;;;;;;;8.15;2.20;;;33.70;32.10;;;;;;5028793;28;20029;-44
2022/08/13 12:43:06;;;;;;;3.05;2.03;;;33.40;33.50;;;;;;5028078;28;20034;-43
2022/08/13 12:45:32;;;;;;;3.60;2.20;;;33.70;33.50;;;;;;5029292;28;20032;-47
2022/08/13 12:48:06;;;;;;;3.40;2.05;;;34.00;34.00;;;;;;5025654;28;20021;-44
2022/08/13 12:50:33;;;;;;;5.13;2.30;;;34.40;33.40;;;;;;5032423;28;20037;-46
2022/08/13 12:52:59;;;;;;;2.35;1.65;;;34.20;31.90;;;;;;5033318;28;20469;-46
2022/08/13 12:55:24;;;;;;;6.80;1.85;;;33.70;32.90;;;;;;5033002;28;20028;-46
2022/08/13 12:57:50;;;;;;;6.35;1.90;;;33.80;32.40;;;;;;5033059;28;20468;-48
2022/08/13 13:00:16;;;;;;;3.70;1.70;;;34.20;32.50;;;;;;5033076;28;20029;-43
2022/08/13 13:02:42;;;;;;;4.75;2.65;;;33.70;31.00;;;;;;5032914;28;20026;-50
2022/08/13 13:05:08;;;;;;;5.18;1.90;;;33.60;31.10;;;;;;5032541;28;20461;-43
2022/08/13 13:07:34;;;;;;;2.38;1.60;;;33.80;31.20;;;;;;5032507;28;20087;-50
2022/08/13 13:10:00;;;;;;;4.85;1.63;;;33.70;31.80;;;;;;5032905;28;20060;-46
2022/08/13 13:12:26;;;;;;;2.75;1.80;;;33.20;32.00;;;;;;5032967;28;20448;-44
2022/08/13 13:14:52;;;;;;;3.78;1.80;;;33.00;31.90;;;;;;5032690;28;20029;-49
2022/08/13 13:17:18;;;;;;;3.47;1.60;;;33.20;31.80;;;;;;5032877;28;20108;-48
2022/08/13 13:19:44;;;;;;;4.07;1.60;;;33.40;31.60;;;;;;5032989;28;20053;-43
2022/08/13 13:22:10;;;;;;;12.77;2.22;;;33.50;32.30;;;;;;5032606;28;20463;-52
2022/08/13 13:24:37;;;;;;;3.28;1.75;;;33.50;32.10;;;;;;5032938;28;20025;-50
2022/08/13 13:27:04;;;;;;;3.95;1.60;;;33.50;31.30;;;;;;5032632;28;20025;-43
2022/08/13 13:29:36;;;;;;;4.25;1.70;;;33.30;31.30;;;;;;5032524;28;20025;-45
2022/08/13 13:32:04;;;;;;;3.70;1.63;;;33.40;31.30;;;;;;5032351;28;20476;-43
2022/08/13 13:34:29;;;;;;;2.40;1.70;;;33.70;30.90;;;;;;5032051;28;20400;-46
2022/08/13 13:36:56;;;;;;;2.55;1.75;;;33.60;30.90;;;;;;5032276;28;20037;-44
2022/08/13 13:39:23;;;;;;;6.95;2.13;;;33.70;30.70;;;;;;5032369;28;20044;-51
2022/08/13 13:41:49;;;;;;;4.40;1.50;;;33.40;30.00;;;;;;5032379;28;20082;-52
2022/08/13 13:44:14;;;;;;;2.40;1.50;;;33.20;31.50;;;;;;5032030;28;20091;-53
2022/08/13 13:46:40;;;;;;;2.50;1.63;;;33.30;31.20;;;;;;5032080;28;20018;-46
2022/08/13 13:49:06;;;;;;;3.72;1.50;;;33.20;31.90;;;;;;5032393;28;20122;-43
2022/08/13 13:51:31;;;;;;;5.20;1.75;;;32.90;30.20;;;;;;5032060;28;20448;-42
2022/08/13 13:53:57;;;;;;;1.88;1.40;;;33.20;31.40;;;;;;5032204;28;20107;-54
2022/08/13 13:56:23;;;;;;;2.40;1.50;;;33.40;31.50;;;;;;5031880;28;20087;-43
2022/08/13 13:58:48;;;;;;;3.50;1.77;;;33.10;29.70;;;;;;5031927;28;20026;-45
2022/08/13 14:01:14;;;;;;;3.90;1.70;;;32.70;30.70;;;;;;5031829;28;20056;-42
2022/08/13 14:03:40;;;;;;;3.90;1.60;;;32.70;30.60;;;;;;5031889;28;20071;-43
2022/08/13 14:06:06;;;;;;;5.32;1.50;;;32.80;30.20;;;;;;5031752;28;20041;-43
2022/08/13 14:08:32;;;;;;;2.22;1.48;;;32.70;30.30;;;;;;5031494;28;20045;-43
2022/08/13 14:10:59;;;;;;;3.20;1.52;;;32.70;30.50;;;;;;5030417;28;20389;-43
2022/08/13 14:13:26;;;;;;;4.13;2.30;;;32.90;30.80;;;;;;5023987;28;20404;-43
2022/08/13 14:15:52;;;;;;;3.10;1.70;;;32.80;29.90;;;;;;5030361;28;20083;-43
2022/08/13 14:18:20;;;;;;;4.93;1.40;;;32.80;30.40;;;;;;5028796;28;20029;-43
2022/08/13 14:20:48;;;;;;;2.57;1.30;;;32.90;29.80;;;;;;5026374;28;20477;-49
2022/08/13 14:23:14;;;;;;;2.67;1.50;;;32.90;29.90;;;;;;5029647;28;20030;-46
2022/08/13 14:25:44;;;;;;;3.65;1.60;;;33.00;30.10;;;;;;5027559;28;20030;-49
2022/08/13 14:28:11;;;;;;;1.55;1.20;;;33.10;30.20;;;;;;5027634;28;20550;-48
2022/08/13 14:30:38;;;;;;;3.97;1.35;;;32.80;29.50;;;;;;5028182;28;20090;-46
2022/08/13 14:33:05;;;;;;;3.10;1.40;;;32.80;30.30;;;;;;5031846;28;20028;-44
2022/08/13 14:35:31;;;;;;;2.55;1.42;;;32.40;29.90;;;;;;5029469;28;20037;-47
2022/08/13 14:37:57;;;;;;;3.13;1.50;;;32.60;30.90;;;;;;5030299;28;20522;-50
2022/08/13 14:40:23;;;;;;;2.20;1.40;;;32.60;31.10;;;;;;5030085;28;20583;-45
2022/08/13 14:42:53;;;;;;;2.65;1.42;;;32.30;30.30;;;;;;5029199;28;20037;-45
2022/08/13 14:45:39;;;;;;;2.75;1.50;;;32.40;30.70;;;;;;5027430;28;20477;-47
2022/08/13 14:48:11;;;;;;;5.88;1.80;;;32.30;30.50;;;;;;5029441;28;20037;-50
2022/08/13 14:50:40;;;;;;;2.10;1.38;;;32.20;31.30;;;;;;5030321;28;20055;-46
2022/08/13 14:53:06;;;;;;;2.97;1.80;;;32.30;30.90;;;;;;5028960;28;20503;-51
2022/08/13 14:55:33;;;;;;;3.17;1.50;;;32.40;31.20;;;;;;5028676;28;20029;-48
2022/08/13 14:58:00;;;;;;;3.58;1.70;;;32.60;33.20;;;;;;5028548;28;20025;-45
2022/08/13 15:00:28;;;;;;;4.15;1.63;;;32.70;30.60;;;;;;5028140;28;20464;-44
2022/08/13 15:02:56;;;;;;;3.33;1.50;;;32.70;30.50;;;;;;5028052;28;20056;-47
2022/08/13 15:05:23;;;;;;;1.83;1.45;;;32.50;30.90;;;;;;5029320;28;20527;-52
2022/08/13 15:07:50;;;;;;;4.63;1.50;;;32.50;31.30;;;;;;5029467;28;20060;-45
2022/08/13 15:10:22;;;;;;;2.78;1.50;;;32.60;31.90;;;;;;5030872;28;20112;-45
2022/08/13 15:12:49;;;;;;;1.77;1.35;;;32.60;31.00;;;;;;5030404;28;20495;-45
2022/08/13 15:15:17;;;;;;;3.25;1.42;;;32.60;32.50;;;;;;5030611;28;20026;-48
2022/08/13 15:17:46;;;;;;;6.15;1.50;;;32.40;31.30;;;;;;5029530;28;20719;-47
2022/08/13 15:20:13;;;;;;;3.65;1.45;;;32.40;32.00;;;;;;5029807;28;20056;-48
2022/08/13 15:22:40;;;;;;;3.15;1.50;;;32.40;31.90;;;;;;5029825;28;20409;-44
2022/08/13 15:25:08;;;;;;;4.00;1.55;;;31.90;31.30;;;;;;5030061;28;20017;-56
2022/08/13 15:27:35;;;;;;;1.75;1.30;;;31.80;32.60;;;;;;5030676;28;20021;-45
2022/08/13 15:30:16;;;;;;;3.22;1.60;;;31.90;33.60;;;;;;5031785;28;20488;-44
2022/08/13 15:32:50;;;;;;;4.40;1.60;;;32.10;32.50;;;;;;5034792;28;20528;-49
2022/08/13 15:35:16;;;;;;;2.58;1.35;;;32.20;32.00;;;;;;5034632;28;20030;-48
2022/08/13 15:37:44;;;;;;;2.80;1.58;;;32.10;32.20;;;;;;5034757;28;20472;-46
2022/08/13 15:40:19;;;;;;;4.00;1.55;;;32.20;31.70;;;;;;5034680;28;20031;-45
2022/08/13 15:42:46;;;;;;;2.03;1.60;;;32.20;32.00;;;;;;5034271;28;20048;-53
2022/08/13 15:45:14;;;;;;;2.67;1.45;;;32.20;32.00;;;;;;5034161;28;20037;-45
2022/08/13 15:47:40;;;;;;;4.90;1.65;;;32.20;31.90;;;;;;5034261;28;20037;-52
2022/08/13 15:50:06;;;;;;;3.65;1.73;;;32.20;32.10;;;;;;5034168;28;20483;-45
2022/08/13 15:52:33;;;;;;;3.88;1.33;;;32.30;31.90;;;;;;5034035;28;20033;-50
2022/08/13 15:55:00;;;;;;;3.08;1.50;;;32.10;31.40;;;;;;5033435;28;20029;-45
2022/08/13 15:57:26;;;;;;;3.30;1.40;;;32.10;32.00;;;;;;5032884;28;20026;-46
2022/08/13 15:59:52;;;;;;;2.80;1.40;;;31.90;32.80;;;;;;5032582;28;20029;-54
2022/08/13 16:02:19;;;;;;;4.38;1.70;;;31.90;32.40;;;;;;5033288;28;20052;-50
2022/08/13 16:04:49;;;;;;;3.45;1.13;;;31.90;32.30;;;;;;5033574;28;20029;-51
2022/08/13 16:07:19;;;;;;;2.67;1.48;;;31.90;32.70;;;;;;5033521;28;20020;-50
2022/08/13 16:09:45;;;;;;;3.17;1.55;;;31.90;32.50;;;;;;5033101;28;20053;-48
2022/08/13 16:12:17;;;;;;;2.30;1.58;;;31.90;32.00;;;;;;5033797;28;20021;-49
2022/08/13 16:14:44;;;;;;;2.92;1.40;;;31.80;31.80;;;;;;5033899;28;20028;-54
2022/08/13 16:17:11;;;;;;;1.90;1.40;;;31.70;31.70;;;;;;5034215;28;20133;-46
2022/08/13 16:19:39;;;;;;;3.50;1.80;;;31.70;32.40;;;;;;5033619;28;20045;-52
2022/08/13 16:22:07;;;;;;;3.55;1.90;;;31.70;32.70;;;;;;5033534;28;20099;-48
2022/08/13 16:24:33;;;;;;;3.35;1.50;;;31.60;31.80;;;;;;5033703;28;20035;-48
2022/08/13 16:27:00;;;;;;;2.30;1.63;;;31.50;32.30;;;;;;5033631;28;20025;-49
2022/08/13 16:29:27;;;;;;;3.25;1.45;;;31.60;31.40;;;;;;5033393;28;20084;-44
2022/08/13 16:31:56;;;;;;;2.90;1.42;;;31.50;31.70;;;;;;5033648;28;20036;-44
2022/08/13 16:34:22;;;;;;;2.53;1.50;;;31.50;31.80;;;;;;5033605;28;20040;-45
2022/08/13 16:36:50;;;;;;;2.42;1.50;;;31.40;32.00;;;;;;5033418;28;20025;-44
2022/08/13 16:39:15;;;;;;;2.17;1.60;;;31.40;32.30;;;;;;5030045;28;20053;-51
2022/08/13 16:41:43;;;;;;;2.45;1.70;;;31.30;33.20;;;;;;5031624;28;20052;-51
2022/08/13 16:44:10;;;;;;;2.63;1.58;;;31.30;32.10;;;;;;5030069;28;20457;-44
2022/08/13 16:46:37;;;;;;;4.50;1.50;;;31.30;32.80;;;;;;5031830;28;20029;-43
2022/08/13 16:49:05;;;;;;;3.33;1.42;;;31.30;31.90;;;;;;5029258;28;20029;-43
2022/08/13 16:51:34;;;;;;;3.58;1.65;;;31.20;32.90;;;;;;5031855;28;20503;-44
2022/08/13 16:54:00;;;;;;;2.45;1.52;;;31.20;33.20;;;;;;5032189;28;20095;-46
2022/08/13 16:56:26;;;;;;;2.72;1.48;;;31.20;32.80;;;;;;5031976;28;20048;-45
2022/08/13 16:58:56;;;;;;;4.40;1.45;;;31.20;32.90;;;;;;5031673;28;20070;-43
2022/08/13 17:01:23;;;;;;;3.90;1.48;;;31.00;32.40;;;;;;5031719;28;20033;-48
2022/08/13 17:09:18;;;;;;;3.20;1.50;;;31.00;33.30;;;;;;5030666;28;20056;-44
2022/08/13 17:11:48;;;;;;;1.83;1.30;;;30.90;32.50;;;;;;5030663;28;20106;-45
2022/08/13 17:14:17;;;;;;;2.90;1.70;;;30.80;32.50;;;;;;5030367;28;20032;-44
2022/08/13 17:16:44;;;;;;;4.65;1.52;;;30.90;33.00;;;;;;5030416;28;20496;-44
2022/08/13 17:19:11;;;;;;;2.22;1.50;;;30.80;33.10;;;;;;5031941;28;20030;-44
2022/08/13 17:21:38;;;;;;;3.92;1.63;;;30.90;33.70;;;;;;5031038;28;20028;-49
2022/08/13 17:24:08;;;;;;;3.10;1.50;;;30.80;33.00;;;;;;5031919;28;20025;-47
2022/08/13 17:26:35;;;;;;;4.15;1.33;;;30.80;33.40;;;;;;5031925;28;20018;-49
2022/08/13 17:29:01;;;;;;;1.98;1.45;;;30.70;33.10;;;;;;5031700;28;20033;-46
2022/08/13 17:31:27;;;;;;;3.75;2.13;;;30.70;33.20;;;;;;5029311;28;20380;-54
2022/08/13 17:33:56;;;;;;;3.83;1.40;;;30.70;33.30;;;;;;5031249;28;20032;-50
2022/08/13 17:36:25;;;;;;;4.80;1.65;;;30.60;33.30;;;;;;5030451;28;20025;-45
2022/08/13 17:38:51;;;;;;;2.80;1.50;;;30.60;33.80;;;;;;5029155;28;20421;-45
2022/08/13 17:41:17;;;;;;;2.22;1.50;;;30.50;33.80;;;;;;5034471;28;20013;-45
2022/08/13 17:43:44;;;;;;;2.85;1.40;;;30.50;34.20;;;;;;5037250;28;20037;-44
2022/08/13 17:46:10;;;;;;;3.63;1.50;;;30.50;34.70;;;;;;5030805;28;20332;-46
2022/08/13 17:48:39;;;;;;;6.03;1.80;;;30.50;34.60;;;;;;5031852;28;20481;-46
2022/08/13 17:51:05;;;;;;;3.10;1.80;;;30.40;35.30;;;;;;5031435;28;20100;-55
2022/08/13 17:53:31;;;;;;;3.03;1.27;;;30.40;35.00;;;;;;5029188;28;20034;-54
2022/08/13 17:55:57;;;;;;;6.47;1.63;;;30.40;35.20;;;;;;5035793;28;20025;-54
2022/08/13 17:58:24;;;;;;;4.57;1.80;;;30.40;35.10;;;;;;5032339;28;20036;-50
2022/08/13 18:00:54;;;;;;;3.25;1.52;;;30.40;36.10;;;;;;5038955;28;20032;-46
2022/08/13 18:03:20;;;;;;;2.97;1.50;;;30.30;36.40;;;;;;5034001;28;20069;-48
2022/08/13 18:05:50;;;;;;;2.08;1.60;;;30.20;36.10;;;;;;5034247;28;20025;-46
2022/08/13 18:08:16;;;;;;;5.93;1.52;;;30.20;36.10;;;;;;5031977;28;20055;-45
2022/08/13 18:10:42;;;;;;;2.97;1.60;;;30.10;36.30;;;;;;5030483;28;20028;-45
2022/08/13 18:13:08;;;;;;;4.03;1.80;;;30.10;37.00;;;;;;5032819;28;20032;-44
2022/08/13 18:15:36;;;;;;;2.50;1.38;;;30.10;37.40;;;;;;5030446;28;20029;-46
2022/08/13 18:18:03;;;;;;;6.40;1.70;;;30.00;38.00;;;;;;5031008;28;20036;-48
2022/08/13 18:20:30;;;;;;;4.15;1.60;;;29.90;38.50;;;;;;5034420;28;20035;-45
2022/08/13 18:22:57;;;;;;;3.50;1.58;;;29.80;38.00;;;;;;5032646;28;20028;-46
2022/08/13 18:25:23;;;;;;;4.00;1.70;;;29.60;38.10;;;;;;5034739;28;20037;-43
2022/08/13 18:27:49;;;;;;;4.03;1.55;;;29.50;38.00;;;;;;5031554;28;20412;-48
2022/08/13 18:30:17;;;;;;;3.22;1.88;;;29.50;38.60;;;;;;5032106;28;20076;-49
2022/08/13 18:32:47;;;;;;;3.22;1.70;;;29.40;39.00;;;;;;5032172;28;20018;-46
2022/08/13 18:35:15;;;;;;;2.72;1.65;;;29.20;38.50;;;;;;5032930;28;20029;-44
2022/08/13 18:37:42;;;;;;;2.63;1.80;;;29.10;39.00;;;;;;5033438;28;20021;-46
2022/08/13 18:40:11;;;;;;;2.85;1.67;;;29.10;39.60;;;;;;5031797;28;20017;-44
2022/08/13 18:42:38;;;;;;;3.30;1.80;;;28.90;39.50;;;;;;5026155;28;20022;-46
2022/08/13 18:45:10;;;;;;;4.00;1.45;;;28.80;40.10;;;;;;5038275;28;20029;-44
2022/08/13 18:47:36;;;;;;;3.85;1.70;;;28.60;39.80;;;;;;5035252;28;20052;-44
2022/08/13 18:50:03;;;;;;;4.38;1.80;;;28.50;40.10;;;;;;5030381;28;20069;-44
2022/08/13 18:52:29;;;;;;;5.72;1.85;;;28.40;40.20;;;;;;5034640;28;20025;-46
2022/08/13 18:54:54;;;;;;;3.80;1.80;;;28.30;40.60;;;;;;5041374;28;20495;-50
2022/08/13 18:57:20;;;;;;;3.00;1.70;;;28.30;40.70;;;;;;5032443;28;20014;-49
2022/08/13 18:59:47;;;;;;;5.05;1.88;;;28.20;41.20;;;;;;5030739;28;20026;-44
2022/08/13 19:02:13;;;;;;;2.85;1.73;;;28.10;40.80;;;;;;5021827;28;20622;-46
2022/08/13 19:04:39;;;;;;;4.18;1.70;;;28.00;41.60;;;;;;5027141;28;20484;-49
2022/08/13 19:07:06;;;;;;;3.83;1.60;;;27.80;41.40;;;;;;5028481;28;20087;-44
2022/08/13 19:09:31;;;;;;;3.50;1.60;;;27.70;42.10;;;;;;5031268;28;20112;-47
2022/08/13 19:11:57;;;;;;;3.38;2.08;;;27.60;42.10;;;;;;5032227;28;20033;-47
2022/08/13 19:14:25;;;;;;;4.57;2.17;;;27.50;42.70;;;;;;5031233;28;20033;-46
2022/08/13 19:16:53;;;;;;;3.00;1.90;;;27.40;43.10;;;;;;5028575;28;20071;-48
2022/08/13 19:19:22;;;;;;;3.57;1.97;;;27.30;43.70;;;;;;5030045;28;20492;-49
2022/08/13 19:21:49;;;;;;;;;;;27.10;43.80;;;;;;5030627;28;20672;-45
2022/08/13 19:24:14;;;;;;;2.60;1.70;;;27.00;44.50;;;;;;5029167;28;19912;-48
2022/08/13 19:26:40;;;;;;;4.25;1.80;;;26.90;44.60;;;;;;5030107;28;20026;-44
2022/08/13 19:29:06;;;;;;;2.97;1.90;;;26.80;45.30;;;;;;5029936;28;20480;-44
2022/08/13 19:31:32;;;;;;;6.15;1.70;;;26.70;45.10;;;;;;5030001;28;20022;-44
2022/08/13 19:33:59;;;;;;;4.28;1.70;;;26.60;45.30;;;;;;5029566;28;20480;-45
2022/08/13 19:36:26;;;;;;;4.50;1.77;;;26.50;45.30;;;;;;5029735;28;20017;-47
2022/08/13 19:38:53;;;;;;;4.75;1.80;;;26.40;45.40;;;;;;5029617;28;20026;-45
2022/08/13 19:41:19;;;;;;;2.97;1.80;;;26.30;45.50;;;;;;5025052;28;20022;-49
2022/08/13 19:43:45;;;;;;;2.47;1.70;;;26.20;46.00;;;;;;5029136;28;20033;-49
2022/08/13 19:46:11;;;;;;;4.28;1.58;;;26.10;46.30;;;;;;5027225;28;20100;-49
2022/08/13 19:48:37;;;;;;;4.22;1.70;;;26.00;46.30;;;;;;5028218;28;20061;-46
2022/08/13 19:51:05;;;;;;;3.38;1.70;;;26.00;47.10;;;;;;5023628;28;20752;-45
2022/08/13 19:53:31;;;;;;;3.40;1.70;;;25.90;46.10;;;;;;5030065;28;20088;-50
2022/08/13 19:55:56;;;;;;;3.50;2.03;;;25.80;47.20;;;;;;5030202;28;20049;-52
2022/08/13 19:58:24;;;;;;;3.58;1.67;;;25.70;46.60;;;;;;5027503;28;20147;-47
2022/08/13 20:00:49;;;;;;;2.78;1.70;;;25.70;46.70;;;;;;5028341;28;20736;-56
2022/08/13 20:03:23;;;;;;;3.72;1.80;;;25.50;47.40;;;;;;5029744;28;20029;-51
2022/08/13 20:05:49;;;;;;;2.30;1.70;;;25.50;48.30;;;;;;5025592;28;20031;-44
2022/08/13 20:08:16;;;;;;;3.90;1.65;;;25.40;48.50;;;;;;5029792;28;20045;-49
2022/08/13 20:10:42;;;;;;;2.30;1.70;;;25.30;48.30;;;;;;5024494;28;20172;-47